Aérodrome :
LOGIN :

S'inscrire | Disclaimer

   EN    FR    IT 

 










Légende :    VFR   VFR Marginal   IFR   IFR Intensif   IFR Très Intensif
Visi : 
Plafond : 
>= 8 km
>= 3000ft
5 à 8 km
1000 à 3000 ft
1500m à 5 km
500 à 1000 ft
800 à 1500m
200 à 500 ft
< 800m
< 200 ft
Symboles :   Orages  Brouillard  Fortes neiges  Fortes précipitations  Vent > 20 kt
SIGMETs :   Divers  Orages  Givrage  Turbulence  Onde Orograph.  Cendres Volcan.






- Altitude de l'aérodrome : 202 ft
- Code IATA : LGW


EGKK - London Gatwick

DERNIER METAR :
  • 161850Z 20004KT 9000 NSC 17/15 Q1017

METARs EXPIRÉS :
  • 161820Z 20005KT 9999 FEW049 18/15 Q1017
  • 161750Z 22006KT 9999 FEW049 19/15 Q1017
  • 161720Z 22006KT CAVOK 20/15 Q1017
  • 161650Z 21006KT CAVOK 20/15 Q1017
  • 161620Z 22007KT 9999 FEW025 21/15 Q1017

TAF AMD TAF EGKK
Valide du 16 à 19h jusqu'au 18 à 00h UTC


161906Z 1619/1724 21004KT 9000 FEW030
BECMG 1621/1624 4000 BR
PROB30 1701/1707 0600 FG BKN001
BECMG 1715/1718 15010KT
BECMG 1721/1724 09004KT
PROB30
TEMPO 1722/1724 8000



MET'MAP, la Météo Aéronautique d'un coup d'oeil ! - Copyright ORBIFLY Décembre 2007 - Disclaimer

ORBIFLY MET'MAP TEAM :

Programmation & Développement : Alexandra Zaïnal
Sur une idée originale de : Baudouin d'Aumeries
Assistance à la programmation : Marc-Olivier Méhu
Soutien technique & logistique : Manuel Goepfert

Contact : metmap@orbifly.com




SOURCES & CREDITS :

   NOAA